Portada
METAR-TAF:

METAR-TAF

Aeropuertos :

Ankara Esenboğa, Turquía

Aeropuerto Internacional Esenboğa

latitud: 40-07N, longitud: 032-59E, altitud: 953 m

Observación

El informe se hizo hace 40 minutos, a las 21:20 UTC
Viento 1 kt con dirección variable
Temperatura 12°C
Humedad 47%
Presión 1021 hPa
Visibilidad 10 km o más
sin nubes por debajo de 1500 m y sin presencia de cumulonimbus.

METAR: LTAC 232120Z VRB01KT CAVOK 12/01 Q1021 NOSIG RMK RWY21L 10002KT RWY03L 00000KT RWY21R VRB02KT

Hora: 01:00 (22:00 UTC)

Pronóstico

El informe se hizo hace 5 horas y 20 minutos, a las 16:40 UTC
Pronóstico válido del 23 a las 18 UTC al 24 a las 18 UTC
Viento 2 kt con dirección variable
Visibilidad 10 km o más
sin nubes por debajo de 1500 m y sin presencia de cumulonimbus.
Evolucionando progresivamente
del 24 a las 06 UTC al 24 a las 08 UTC
Nubes dispersas a una altura de 4000 ft

TAF: LTAC 231640Z 2318/2418 VRB02KT CAVOK BECMG 2406/2408 SCT040

Observaciones y pronósticos meteorológicos de más de 4000 aeropuertos (mensajes METAR y TAF).

Los puntos amarillos y rojos representan las estaciones disponibles.

Ponga el ratón en el punto deseado para ver el nombre de la estación.

Haga clic para ver las observaciones y los pronósticos meteorológicos.

Para cambiar el mapa : haga clic en los botones verdes con una cruz de color negro para hacer un zoom, en el botón verde con un guión para alejar o en las flechas verdes para mapas adyacentes.


METAR-TAF: